Barbeau, MI (49710)

12:52 AM EST on February 13, 2016 (GMT -0500)
Charlotte Beach | | Change Station
CLOSE
Current Station
Personal Weather Station
Location: Barbeau, MI
Elevation: 571 ft
Nearby Weather Stations
Active Advisory: Winter Weather Advisory Active Notice: Local Storm Report

Elev 571 ft 46.31 °N, 84.22 °W | Updated 10 minutes ago

Overcast
Overcast
-11.3 °F
Feels Like -35 °F
N
17.0
Wind Variable Wind from ENE
Gusts 18.0 mph

Today
High -- | Low -- °F
--% Chance of Precip.
Yesterday
High -- | Low -- °F
Precip. -- in
Pressure 30.29 in
Visibility 10.0 miles
Clouds Overcast 3400 ft
Windchill -35 °F
Dew Point -20 °F
Humidity 66%
Rainfall 0.00 in
Snow Depth Not available.
7:43 AM 5:58 PM
Waxing Crescent, 27% visible
METAR KCIU 130535Z AUTO 03006KT 10SM OVC034 M25/M30 A3029 RMK AO1
Pressure 30.29 in
Visibility 10.0 miles
Clouds Overcast 3400 ft
Windchill -35 °F
Dew Point -20 °F
Humidity 66%
Rainfall 0.00 in
Snow Depth Not available.
7:43 AM 5:58 PM
Waxing Crescent, 27% visible
METAR KCIU 130535Z AUTO 03006KT 10SM OVC034 M25/M30 A3029 RMK AO1

10-Day Weather Forecast

Almanac

Astronomy

Feb. 13, 2016 Rise Set
Actual Time
Civil Twilight
Nautical Twilight
Astronomical Twilight
Moon
Length of Visible Light
Length of Day
Tomorrow will be .
, % of the Moon is Illuminated

Today's Extremes

State Highs State Lows

Community

WunderPhotos

Upload Photos

1,892,507 photos uploaded!

WunderBlog® & News

Nearby

Air Quality

  Air Quality AQ Index Pollutant
Not available.

Snow Depth

Station Depth Elevation

Earthquake Activity

City Distance Mag. Time & Date
Minimum magnitude displayed is 2.5.

Coastal Water Temperatures

Place Temperature

Stations

Nearby Weather Stations

Station Location Temp. Windchill Dew Point Humidity Wind Precip. Elev Updated Type
                   

Watches & Warnings

Winter Weather Advisory
Issued: 9:14 PM EST Feb. 12, 2016 – National Weather Service

... Winter Weather Advisory remains in effect until noon EST
Saturday...

* lake effect snow showers will continue overnight... primarily
west of Interstate 75.

* Total nighttime snow accumulations of 1 to 3 inches can be
expected in western Chippewa and Mackinac counties.

* Gusty northwest winds will result in blowing and drifting snow.

* Look for periods of very poor visibility.

* Wind chills will approach 30 below zero tonight... with the
coldest readings in the St Marys River valley.

Precautionary/preparedness actions...

A Winter Weather Advisory for snow means periods of snow will
cause primarily travel difficulties. Be prepared for snow covered
roads and limited visibilities... and use caution while driving.
For the latest Road conditions... go to the mdot website at
Michigan.Gov.

Extreme wind chills may result in frostbite and lead to
hypothermia if precautions are not taken. If you must venture
outdoors... make sure you wear a hat and gloves.